LiveATC.Net - Listen to live air traffic control over the Internet! Contact LiveATC.net for advertising information

Find LiveATC Audio Streams


Airport/ARTCC Code

Frequency
(e.g., 124.400, 128.75)
Site-wide search

Browse LiveATC Feeds
LiveATC Coverage Map
Top 50 LiveATC Feeds
Bad Weather Areas

LiveATC FAQ
Offer a LiveATC Feed
Contact LiveATC.net
Press Inquiries

LiveATC on iPhone
LiveATC on Android

LiveATC Mobile
(Mobile browser)

ATC Audio Archives
Interesting Recordings

LiveATC Forums

Home Page
About LiveATC.net
Make a Donation
LiveATC Bookstore

Terms of Use
Privacy Policy

ATC/Radar Sites
U.S. ARTCC Freqs
Canadian Air Freqs

AIRMETs/SIGMETs

FAA Airport Status
Nat'l Airspace Status
Arrival Demand Charts


Server Software By:
Icecast.org
Liquidsoap

U.S. Feeds: Class B Airports | Class C Airports | Class D/Other Airports | ARTCC (Centers)
International Feeds: Canada | Europe | Oceania | Asia | South America | North & Central America | Africa
Misc Feeds: HF Feeds
All Feeds: All Feeds
Search by ICAO/IATA airport code:   (e.g., kbos, kjfk, lax, eham, etc.)


Currently Available Live Feeds: 1171
Status Updated: Thu Jul 30 2015 04:07:02 UTC


NOTICE

Unauthorized use prohibited. See LiveATC.net Terms of Service

ATC Facility
ATC Radio Frequencies

North and Central America Airport Feeds

 

BGGH AFIS (Archives)
Nuuk, Greenland

Feed Status: UP

Click on your favorite media player to listen:
Listen with WinAmp to BGGH AFIS  Listen with iTunes to BGGH AFIS  Click here to listen if using Real Player  Click here to listen if using Windows Media Player

Or simply listen in your browser:

Listen right in your browser(in browser, requires Flash)

BGGH 300350Z AUTO 02002KT 9999NDV OVC003/// 04/04 Q1021


Listeners: 2 out of 3638 total

Nuuk AFIS: 119.100

MMAN Tower (Archives)
Monterrey, Mexico

Feed Status: UP

Click on your favorite media player to listen:
Listen with WinAmp to MMAN Tower  Listen with iTunes to MMAN Tower  Click here to listen if using Real Player  Click here to listen if using Windows Media Player

Or simply listen in your browser:

Listen right in your browser(in browser, requires Flash)

MMAN 300340Z 11009KT 12SM SKC 29/17 A3004 RMK ISOL SC AC

MMAN Flight Activity (Flightaware)

Listeners: 2 out of 3638 total

Monterrey Tower: 118.600

MMCL Twr/App/Center (Archives)
Culiacan, Mexico

Feed Status: UP

Click on your favorite media player to listen:
Listen with WinAmp to MMCL Twr/App/Center  Listen with iTunes to MMCL Twr/App/Center  Click here to listen if using Real Player  Click here to listen if using Windows Media Player

Or simply listen in your browser:

Listen right in your browser(in browser, requires Flash)

MMCL 300340Z 28008KT 10SM BKN100 OVC220 32/25 A2987 RMK 8/077

MMCL Flight Activity (Flightaware)

Listeners: 4 out of 3638 total

Culiacan Approach: 119.750
Culiacan Tower: 118.500
Mazatlan Center: 124.200
Mazatlan Center: 124.400
Mazatlan Center: 128.000

MMGL Twr/App (Archives)
Guadalajara, Mexico

Feed Status: UP

Click on your favorite media player to listen:
Listen with WinAmp to MMGL Twr/App  Listen with iTunes to MMGL Twr/App  Click here to listen if using Real Player  Click here to listen if using Windows Media Player

Or simply listen in your browser:

Listen right in your browser(in browser, requires Flash)

MMGL 300351Z 16004KT 7SM SCT300 20/16 A3016 RMK 8/002 HZY

MMGL Flight Activity (Flightaware)

Listeners: 7 out of 3638 total

Guadalajara Approach: 120.800
Guadalajara Tower: 118.100

MMJA AFIS/App/Center (Archives)
Veracruz, Mexico

Feed Status: UP

Click on your favorite media player to listen:
Listen with WinAmp to MMJA AFIS/App/Center  Listen with iTunes to MMJA AFIS/App/Center  Click here to listen if using Real Player  Click here to listen if using Windows Media Player

Or simply listen in your browser:

Listen right in your browser(in browser, requires Flash)

MMJA Flight Activity (Flightaware)

Listeners: 2 out of 3638 total

Lencero AFIS: 123.300
Mexico Center: 126.600
Mexico Center: 128.000
Mexico Center: 128.500
Mexico Center: 126.300
Veracruz Approach: 120.400

MMMD Tower/Approach (Archives)
Merida, Mexico

Feed Status: UP

Click on your favorite media player to listen:
Listen with WinAmp to MMMD Tower/Approach   Listen with iTunes to MMMD Tower/Approach   Click here to listen if using Real Player  Click here to listen if using Windows Media Player

Or simply listen in your browser:

Listen right in your browser(in browser, requires Flash)

MMMD 300346Z 05010KT 7SM SCT300 28/24 A3003 RMK 8/008

MMMD Flight Activity (Flightaware)

Listeners: 2 out of 3638 total

Merida Approach: 121.200
Merida Tower: 118.300

MMMX App/Dep (Archives)
Mexico City, Mexico

Feed Status: UP

Click on your favorite media player to listen:
Listen with WinAmp to MMMX App/Dep  Listen with iTunes to MMMX App/Dep  Click here to listen if using Real Player  Click here to listen if using Windows Media Player

Or simply listen in your browser:

Listen right in your browser(in browser, requires Flash)

MMMX 300346Z 33008KT 12SM FEW080 SCT200 19/11 A3039 NOSIG RMK 8/062

MMMX Flight Activity (Flightaware)

Listeners: 11 out of 3638 total

Mexico City Departure (East): 120.500
Mexico City Departure (West): 129.100
Terminal MEX (Approach): 129.600

MMMX Approach
Mexico City, Mexico

Feed Status: DOWN
Offline since: 2015-07-29 21:45:02 UTC
MMMX 300346Z 33008KT 12SM FEW080 SCT200 19/11 A3039 NOSIG RMK 8/062

Mexico City Approach: 121.200

MMMY Tower/Approach (Archives)
Monterrey, Mexico

Feed Status: UP

Click on your favorite media player to listen:
Listen with WinAmp to MMMY Tower/Approach  Listen with iTunes to MMMY Tower/Approach  Click here to listen if using Real Player  Click here to listen if using Windows Media Player

Or simply listen in your browser:

Listen right in your browser(in browser, requires Flash)

MMMY 300341Z 10012KT 15SM SKC 29/17 A3000

MMMY Flight Activity (Flightaware)

Listeners: 2 out of 3638 total

Monterrey Approach/Departure: 119.750
Monterrey Tower: 118.100

MMPB Tower (Archives)
Puebla, Mexico

Feed Status: UP

Click on your favorite media player to listen:
Listen with WinAmp to MMPB Tower  Listen with iTunes to MMPB Tower  Click here to listen if using Real Player  Click here to listen if using Windows Media Player

Or simply listen in your browser:

Listen right in your browser(in browser, requires Flash)

MMPB 300345Z 31004KT 8SM FEW020 SCT100 SCT230 16/12 A3040 RMK 8/572

MMPB Flight Activity (Flightaware)

Listeners: 2 out of 3638 total

Puebla Tower: 118.200

MMTC Torreon, Mexico (Archives)
Torreon, Mexico

Feed Status: UP

Click on your favorite media player to listen:
Listen with WinAmp to MMTC Torreon, Mexico  Listen with iTunes to MMTC Torreon, Mexico  Click here to listen if using Real Player  Click here to listen if using Windows Media Player

Or simply listen in your browser:

Listen right in your browser(in browser, requires Flash)

MMTC 300341Z 06004KT 8SM FEW035 SCT090 32/12 A3008 RMK 8/570 ISOL CI

MMTC Flight Activity (Flightaware)

Listeners: 2 out of 3638 total

Mazatlan Center: 124.200
Mazatlan Center: 124.400
Mazatlan Center: 128.000
Mexico Center: 123.900
Monterrey Center: 125.600
Monterrey Center: 125.425
Monterrey Center: 127.400
Torreon Approach: 119.500
Torreon Tower: 118.500

MMUN Twr/App/Center (Archives)
Cancun, Mexico

Feed Status: UP

Click on your favorite media player to listen:
Listen with WinAmp to MMUN Twr/App/Center  Listen with iTunes to MMUN Twr/App/Center  Click here to listen if using Real Player  Click here to listen if using Windows Media Player

Or simply listen in your browser:

Listen right in your browser(in browser, requires Flash)

MMMD 300346Z 05010KT 7SM SCT300 28/24 A3003 RMK 8/008

MMMD Flight Activity (Flightaware)

Listeners: 4 out of 3638 total

Cancun Approach: 123.400
Cancun Departure: 119.800
Cancun Tower (North): 118.100
Cancun Tower (South): 118.600
Merida Center: 125.200
Merida Center: 128.200

TNCM Tower/App (Archives)
Philipsburg, Saint Martin

Feed Status: UP

Click on your favorite media player to listen:
Listen with WinAmp to TNCM Tower/App  Listen with iTunes to TNCM Tower/App  Click here to listen if using Real Player  Click here to listen if using Windows Media Player

Or simply listen in your browser:

Listen right in your browser(in browser, requires Flash)

TNCM 300300Z 09010KT 9999 SCT021 28/23 Q1018 A3006

TNCM Flight Activity (Flightaware)

Listeners: 4 out of 3638 total

Juliana Approach (only when busy): 128.950
Juliana Tower (TNCM): 118.700

Bermuda Tower/Ground (Archives)
Hamilton, Bermuda

Feed Status: UP

Click on your favorite media player to listen:
Listen with WinAmp to Bermuda Tower/Ground  Listen with iTunes to Bermuda Tower/Ground  Click here to listen if using Real Player  Click here to listen if using Windows Media Player

Or simply listen in your browser:

Listen right in your browser(in browser, requires Flash)

TXKF 300355Z 23011KT 9999 SCT013 SCT180 BKN300 26/23 Q1019 

TXKF Flight Activity (Flightaware)

Listeners: 2 out of 3638 total

Bermuda CTAF: 122.800
Bermuda Ground/Clearance: 124.500
Bermuda Tower: 118.100

ZNY Bermuda Sector (Archives)
Hamilton, Bermuda

Feed Status: UP

Click on your favorite media player to listen:
Listen with WinAmp to ZNY Bermuda Sector  Listen with iTunes to ZNY Bermuda Sector  Click here to listen if using Real Player  Click here to listen if using Windows Media Player

Or simply listen in your browser:

Listen right in your browser(in browser, requires Flash)

TXKF 300355Z 23011KT 9999 SCT013 SCT180 BKN300 26/23 Q1019 

TXKF Flight Activity (Flightaware)

Listeners: 2 out of 3638 total

New York Approach (Bermuda Sector) : 119.100
New York Center (Bermuda Sector): 128.500

MGGT Gnd/Twr (Archives)
Guatemala City, Guatemala

Feed Status: UP

Click on your favorite media player to listen:
Listen with WinAmp to MGGT Gnd/Twr  Listen with iTunes to MGGT Gnd/Twr  Click here to listen if using Real Player  Click here to listen if using Windows Media Player

Or simply listen in your browser:

Listen right in your browser(in browser, requires Flash)

MGGT 300400Z 01010KT 9999 SCT015 SCT070 19/16 Q1027 A3033 CB/LTNG DIST SSW

MGGT Flight Activity (Flightaware)

Listeners: 4 out of 3638 total

Guatemala City Ground: 121.900
Guatemala City Tower: 118.100

MGGT Ground (Archives)
Guatemala City, Guatemala

Feed Status: UP

Click on your favorite media player to listen:
Listen with WinAmp to MGGT Ground  Listen with iTunes to MGGT Ground  Click here to listen if using Real Player  Click here to listen if using Windows Media Player

Or simply listen in your browser:

Listen right in your browser(in browser, requires Flash)

MGGT 300400Z 01010KT 9999 SCT015 SCT070 19/16 Q1027 A3033 CB/LTNG DIST SSW

MGGT Flight Activity (Flightaware)

Listeners: 3 out of 3638 total

Guatemala City Ground: 121.900

MGGT Tower (Archives)
Guatemala City, Guatemala

Feed Status: UP

Click on your favorite media player to listen:
Listen with WinAmp to MGGT Tower  Listen with iTunes to MGGT Tower  Click here to listen if using Real Player  Click here to listen if using Windows Media Player

Or simply listen in your browser:

Listen right in your browser(in browser, requires Flash)

MGGT 300400Z 01010KT 9999 SCT015 SCT070 19/16 Q1027 A3033 CB/LTNG DIST SSW

MGGT Flight Activity (Flightaware)

Listeners: 3 out of 3638 total

Guatemala City Tower: 118.100

MHTG Gnd/Twr/App/Ctr/Ops (Archives)
Tegucigalpa, Honduras

Feed Status: UP

Click on your favorite media player to listen:
Listen with WinAmp to MHTG Gnd/Twr/App/Ctr/Ops  Listen with iTunes to MHTG Gnd/Twr/App/Ctr/Ops  Click here to listen if using Real Player  Click here to listen if using Windows Media Player

Or simply listen in your browser:

Listen right in your browser(in browser, requires Flash)

MHTG 300400Z 00000KT 9999 SCT030 SCT090 22/17 Q1020 A3012 NOSIG

MHTG Flight Activity (Flightaware)

Listeners: 4 out of 3638 total

American Airlines Ops: 130.700
ARINC ACARS: 131.550
Cenamer Center: 123.900
Cenamer Center: 124.300
Cenamer Center: 124.100
CMP Ops: 129.925
Continental Airlines Ops: 129.925
FAH Ground: 122.900
Taca Ops: 131.300
Taca Ops Sal: 130.300
Tecnologias Unidas: 133.000
Tegucigalpa RDO: 126.700
Toncontin Approach: 119.100
Toncontin Ground: 121.900
Toncontin Tower: 118.700

MPTO Twr/App/Control (Archives)
Panama City, Panama

Feed Status: UP

Click on your favorite media player to listen:
Listen with WinAmp to MPTO Twr/App/Control  Listen with iTunes to MPTO Twr/App/Control  Click here to listen if using Real Player  Click here to listen if using Windows Media Player

Or simply listen in your browser:

Listen right in your browser(in browser, requires Flash)

MPTO 300400Z 00000KT 9999 FEW020 SCT100 27/25 Q1011 NOSIG

MPTO Flight Activity (Flightaware)

Listeners: 3 out of 3638 total

Panama Approach: 121.200
Panama Control: 123.300
Panama Control: 133.300
Panama Departure: 119.700
Panama Tower: 118.100

MROC Del/Gnd/Twr/App/Center/Misc
San Jose, Costa Rica

Feed Status: DOWN
Offline since: 2015-07-30 03:32:03 UTC
MROC 300400Z 07002KT 9999 FEW030 SCT100 21/20 A3006 NOSIG

ADS: 131.000
Aerodespacho Ops: 135.000
Central American Center (CENAMER Control): 124.100
Coco Center (Control over CR Airspace): 119.600
Coco Clearance Delivery: 121.300
Coco Ground: 121.900
Coco Terminal Control: 120.500
Coco Tower: 118.600
Coco UNICOM: 126.800
SYQ Ground: 121.700
SYQ Tower: 118.300

MSSS Tower (Archives)
San Salvador, El Salvador

Feed Status: UP

Click on your favorite media player to listen:
Listen with WinAmp to MSSS Tower  Listen with iTunes to MSSS Tower  Click here to listen if using Real Player  Click here to listen if using Windows Media Player

Or simply listen in your browser:

Listen right in your browser(in browser, requires Flash)

MSSS 300350Z 00000KT CAVOK 24/21 Q1016 A3002

MSSS Flight Activity (Flightaware)

Listeners: 4 out of 3638 total

El Salvador Approach: 119.900
Ilopango Approach: 119.500
Ilopango Ground: 121.900
Ilopango Tower: 118.300

Please make a donation to help us keep growing!